createdAt,value
2017-06-18T00:00:32.424Z,1019.6
2017-06-18T00:01:12.963Z,1019.6
2017-06-18T00:01:53.504Z,1019.61
2017-06-18T00:02:34.050Z,1019.6
2017-06-18T00:03:14.598Z,1019.61
2017-06-18T00:03:55.149Z,1019.65
2017-06-18T00:04:35.700Z,1019.6
2017-06-18T00:05:16.254Z,1019.59
2017-06-18T00:05:56.797Z,1019.64
2017-06-18T00:06:37.344Z,1019.58
2017-06-18T00:07:17.885Z,1019.58
2017-06-18T00:07:58.420Z,1019.57
2017-06-18T00:08:38.952Z,1019.57
2017-06-18T00:09:19.489Z,1019.56
2017-06-18T00:10:00.037Z,1019.54
2017-06-18T00:10:40.585Z,1019.53
2017-06-18T00:11:21.137Z,1019.56
2017-06-18T00:12:01.683Z,1019.53
2017-06-18T00:12:42.219Z,1019.53
2017-06-18T00:13:22.777Z,1019.51
2017-06-18T00:14:03.305Z,1019.54
2017-06-18T00:14:43.852Z,1019.52
2017-06-18T00:15:24.378Z,1019.54
2017-06-18T00:16:04.923Z,1019.52
2017-06-18T00:16:45.458Z,1019.54
2017-06-18T00:17:26.001Z,1019.51
2017-06-18T00:18:06.538Z,1019.55
2017-06-18T00:18:47.093Z,1019.52
2017-06-18T00:19:27.632Z,1019.53
2017-06-18T00:20:08.177Z,1019.54
2017-06-18T00:20:48.722Z,1019.52
2017-06-18T00:21:29.255Z,1019.53
2017-06-18T00:23:48.620Z,1019.51
2017-06-18T00:24:29.151Z,1019.52
2017-06-18T00:25:09.693Z,1019.51
2017-06-18T00:25:50.226Z,1019.53
2017-06-18T00:26:30.767Z,1019.53
2017-06-18T00:27:11.322Z,1019.51
2017-06-18T00:27:51.856Z,1019.53
2017-06-18T00:28:32.397Z,1019.52
2017-06-18T00:29:12.943Z,1019.47
2017-06-18T00:29:53.478Z,1019.57
2017-06-18T00:30:34.021Z,1019.51
2017-06-18T00:31:14.558Z,1019.52
2017-06-18T00:31:55.101Z,1019.51
2017-06-18T00:32:35.640Z,1019.53
2017-06-18T00:33:16.172Z,1019.55
2017-06-18T00:33:56.723Z,1019.49
2017-06-18T00:34:37.257Z,1019.55
2017-06-18T00:35:17.787Z,1019.49
2017-06-18T00:35:58.336Z,1019.51
2017-06-18T00:36:38.888Z,1019.52
2017-06-18T00:37:19.419Z,1019.52
2017-06-18T00:37:59.961Z,1019.52
2017-06-18T00:38:40.497Z,1019.53
2017-06-18T00:39:21.038Z,1019.52
2017-06-18T00:40:01.583Z,1019.49
2017-06-18T00:40:42.129Z,1019.5
2017-06-18T00:41:22.676Z,1019.47
2017-06-18T00:42:03.226Z,1019.5
2017-06-18T00:42:43.774Z,1019.47
2017-06-18T00:43:24.310Z,1019.49
2017-06-18T00:44:04.889Z,1019.46
2017-06-18T00:44:45.429Z,1019.49
2017-06-18T00:45:25.973Z,1019.47
2017-06-18T00:46:06.520Z,1019.48
2017-06-18T00:46:47.058Z,1019.43
2017-06-18T00:47:27.600Z,1019.45
2017-06-18T00:48:08.131Z,1019.45
2017-06-18T00:48:48.693Z,1019.45
2017-06-18T00:49:29.229Z,1019.41
2017-06-18T00:50:09.776Z,1019.42
2017-06-18T00:50:50.318Z,1019.4
2017-06-18T00:51:30.850Z,1019.39
2017-06-18T00:52:11.483Z,1019.42
2017-06-18T00:52:52.026Z,1019.38
2017-06-18T00:53:32.558Z,1019.43
2017-06-18T00:54:13.100Z,1019.38
2017-06-18T00:54:53.618Z,1019.36
2017-06-18T00:55:34.167Z,1019.38
2017-06-18T00:56:14.716Z,1019.41
2017-06-18T00:56:55.272Z,1019.41
2017-06-18T00:57:35.821Z,1019.41
2017-06-18T00:58:16.367Z,1019.4
2017-06-18T00:58:56.906Z,1019.39
2017-06-18T00:59:37.453Z,1019.4
2017-06-18T01:00:18.000Z,1019.45
2017-06-18T01:00:58.550Z,1019.4
2017-06-18T01:01:39.091Z,1019.44
2017-06-18T01:02:19.632Z,1019.39
2017-06-18T01:03:00.174Z,1019.4
2017-06-18T01:03:40.707Z,1019.41
2017-06-18T01:04:21.243Z,1019.43
2017-06-18T01:05:01.777Z,1019.42
2017-06-18T01:05:42.327Z,1019.4
2017-06-18T01:06:22.908Z,1019.4
2017-06-18T01:07:03.446Z,1019.38
2017-06-18T01:07:43.953Z,1019.37
2017-06-18T01:08:24.514Z,1019.41
2017-06-18T01:09:05.061Z,1019.4
2017-06-18T01:09:45.607Z,1019.41
2017-06-18T01:10:26.162Z,1019.43
2017-06-18T01:11:06.711Z,1019.41
2017-06-18T01:11:47.262Z,1019.4
2017-06-18T01:12:27.858Z,1019.38
2017-06-18T01:13:08.405Z,1019.36
2017-06-18T01:13:48.927Z,1019.34
2017-06-18T01:14:29.475Z,1019.37
2017-06-18T01:15:10.020Z,1019.39
2017-06-18T01:15:50.557Z,1019.37
2017-06-18T01:16:31.102Z,1019.37
2017-06-18T01:17:11.649Z,1019.37
2017-06-18T01:17:52.202Z,1019.38
2017-06-18T01:18:32.750Z,1019.36
2017-06-18T01:19:13.302Z,1019.38
2017-06-18T01:19:53.851Z,1019.36
2017-06-18T01:20:34.389Z,1019.37
2017-06-18T01:21:14.917Z,1019.35
2017-06-18T01:21:55.449Z,1019.37
2017-06-18T01:22:36.001Z,1019.34
2017-06-18T01:23:16.532Z,1019.36
2017-06-18T01:23:57.083Z,1019.37
2017-06-18T01:24:37.634Z,1019.33
2017-06-18T01:25:18.180Z,1019.33
2017-06-18T01:25:58.729Z,1019.31
2017-06-18T01:26:39.284Z,1019.28
2017-06-18T01:27:19.834Z,1019.32
2017-06-18T01:28:00.387Z,1019.3
2017-06-18T01:28:40.925Z,1019.31
2017-06-18T01:29:21.466Z,1019.33
2017-06-18T01:30:02.024Z,1019.32
2017-06-18T01:30:42.570Z,1019.3
2017-06-18T01:31:23.117Z,1019.28
2017-06-18T01:32:03.664Z,1019.29
2017-06-18T01:32:44.210Z,1019.27
2017-06-18T01:33:24.747Z,1019.3
2017-06-18T01:34:05.277Z,1019.31
2017-06-18T01:34:45.813Z,1019.3
2017-06-18T01:35:26.344Z,1019.33
2017-06-18T01:36:06.890Z,1019.26
2017-06-18T01:36:47.435Z,1019.29
2017-06-18T01:37:27.987Z,1019.3
2017-06-18T01:38:08.528Z,1019.28
2017-06-18T01:38:49.075Z,1019.28
2017-06-18T01:39:29.620Z,1019.27
2017-06-18T01:40:10.175Z,1019.3
2017-06-18T01:40:50.723Z,1019.3
2017-06-18T01:41:31.273Z,1019.29
2017-06-18T01:42:11.820Z,1019.29
2017-06-18T01:42:52.371Z,1019.29
2017-06-18T01:43:32.902Z,1019.29
2017-06-18T01:44:13.440Z,1019.32
2017-06-18T01:44:53.978Z,1019.32
2017-06-18T01:45:34.514Z,1019.36
2017-06-18T01:46:15.060Z,1019.33
2017-06-18T01:46:55.606Z,1019.32
2017-06-18T01:47:36.156Z,1019.35
2017-06-18T01:48:16.700Z,1019.31
2017-06-18T01:48:57.259Z,1019.33
2017-06-18T01:49:37.804Z,1019.33
2017-06-18T01:50:18.350Z,1019.33
2017-06-18T01:50:58.897Z,1019.34
2017-06-18T01:51:39.436Z,1019.34
2017-06-18T01:52:19.986Z,1019.33
2017-06-18T01:53:00.535Z,1019.3
2017-06-18T01:53:41.092Z,1019.31
2017-06-18T01:54:21.639Z,1019.33
2017-06-18T01:55:02.179Z,1019.36
2017-06-18T01:55:42.720Z,1019.32
2017-06-18T01:56:23.256Z,1019.29
2017-06-18T01:57:03.818Z,1019.32
2017-06-18T01:57:44.335Z,1019.31
2017-06-18T01:58:24.885Z,1019.32
2017-06-18T01:59:05.423Z,1019.32
2017-06-18T01:59:45.969Z,1019.32
2017-06-18T02:00:26.507Z,1019.3
2017-06-18T02:01:07.053Z,1019.29
2017-06-18T02:01:47.601Z,1019.3
2017-06-18T02:02:28.143Z,1019.3
2017-06-18T02:03:08.691Z,1019.29
2017-06-18T02:03:49.234Z,1019.27
2017-06-18T02:04:29.783Z,1019.26
2017-06-18T02:05:10.329Z,1019.28
2017-06-18T02:05:50.875Z,1019.29
2017-06-18T02:06:31.416Z,1019.3
2017-06-18T02:07:11.962Z,1019.3
2017-06-18T02:07:52.502Z,1019.29
2017-06-18T02:08:33.046Z,1019.26
2017-06-18T02:09:13.600Z,1019.28
2017-06-18T02:09:54.143Z,1019.27
2017-06-18T02:10:34.685Z,1019.26
2017-06-18T02:11:15.231Z,1019.27
2017-06-18T02:11:55.770Z,1019.27
2017-06-18T02:12:36.311Z,1019.29
2017-06-18T02:13:16.864Z,1019.29
2017-06-18T02:13:57.416Z,1019.27
2017-06-18T02:14:38.004Z,1019.31
2017-06-18T02:15:18.540Z,1019.28
2017-06-18T02:15:59.087Z,1019.27
2017-06-18T02:16:39.635Z,1019.31
2017-06-18T02:17:20.186Z,1019.32
2017-06-18T02:18:00.731Z,1019.34
2017-06-18T02:18:41.273Z,1019.33
2017-06-18T02:19:21.803Z,1019.33
2017-06-18T02:20:02.336Z,1019.32
2017-06-18T02:20:42.883Z,1019.32
2017-06-18T02:21:23.432Z,1019.3
2017-06-18T02:22:03.970Z,1019.33
2017-06-18T02:22:44.516Z,1019.32
2017-06-18T02:23:25.052Z,1019.27
2017-06-18T02:24:05.596Z,1019.3
2017-06-18T02:24:46.136Z,1019.3
2017-06-18T02:25:26.697Z,1019.3
2017-06-18T02:26:07.238Z,1019.34
2017-06-18T02:26:47.775Z,1019.32
2017-06-18T02:27:28.326Z,1019.31
2017-06-18T02:28:08.857Z,1019.35
2017-06-18T02:28:49.399Z,1019.3
2017-06-18T02:29:29.931Z,1019.3
2017-06-18T02:30:10.490Z,1019.33
2017-06-18T02:30:51.006Z,1019.3
2017-06-18T02:31:31.547Z,1019.38
2017-06-18T02:32:12.092Z,1019.34
2017-06-18T02:32:52.632Z,1019.32
2017-06-18T02:33:33.175Z,1019.33
2017-06-18T02:34:13.731Z,1019.3
2017-06-18T02:34:54.272Z,1019.33
2017-06-18T02:35:34.817Z,1019.34
2017-06-18T02:36:15.365Z,1019.33
2017-06-18T02:36:55.901Z,1019.29
2017-06-18T02:37:36.421Z,1019.3
2017-06-18T02:38:16.981Z,1019.29
2017-06-18T02:38:57.511Z,1019.31
2017-06-18T02:39:38.053Z,1019.32
2017-06-18T02:40:18.593Z,1019.34
2017-06-18T02:40:59.137Z,1019.32
2017-06-18T02:41:39.682Z,1019.33
2017-06-18T02:42:20.220Z,1019.34
2017-06-18T02:43:00.760Z,1019.31
2017-06-18T02:43:41.302Z,1019.29
2017-06-18T02:44:21.840Z,1019.28
2017-06-18T02:45:02.373Z,1019.28
2017-06-18T02:45:42.916Z,1019.29
2017-06-18T02:46:23.460Z,1019.32
2017-06-18T02:47:03.988Z,1019.31
2017-06-18T02:47:44.539Z,1019.33
2017-06-18T02:48:25.054Z,1019.3
2017-06-18T02:49:05.598Z,1019.3
2017-06-18T02:49:46.135Z,1019.3
2017-06-18T02:50:26.672Z,1019.29
2017-06-18T02:51:07.213Z,1019.3
2017-06-18T02:51:47.768Z,1019.28
2017-06-18T02:52:28.291Z,1019.29
2017-06-18T02:53:08.843Z,1019.3
2017-06-18T02:53:49.388Z,1019.32
2017-06-18T02:54:29.923Z,1019.31
2017-06-18T02:55:10.469Z,1019.32
2017-06-18T02:55:50.984Z,1019.36
2017-06-18T02:56:31.527Z,1019.35
2017-06-18T02:57:12.082Z,1019.37
2017-06-18T02:57:52.625Z,1019.33
2017-06-18T02:58:33.180Z,1019.37
2017-06-18T02:59:13.727Z,1019.35
2017-06-18T02:59:54.267Z,1019.37
2017-06-18T03:00:34.806Z,1019.37
2017-06-18T03:01:15.341Z,1019.37
2017-06-18T03:01:55.875Z,1019.37
2017-06-18T03:02:36.410Z,1019.37
2017-06-18T03:03:16.937Z,1019.39
2017-06-18T03:03:57.485Z,1019.4
2017-06-18T03:04:38.028Z,1019.41
2017-06-18T03:05:18.549Z,1019.4
2017-06-18T03:05:59.085Z,1019.42
2017-06-18T03:06:39.626Z,1019.41
2017-06-18T03:07:20.173Z,1019.41
2017-06-18T03:08:00.708Z,1019.4
2017-06-18T03:08:41.249Z,1019.4
2017-06-18T03:09:21.786Z,1019.39
2017-06-18T03:10:02.318Z,1019.37
2017-06-18T03:10:42.867Z,1019.43
2017-06-18T03:11:23.409Z,1019.39
2017-06-18T03:12:03.965Z,1019.39
2017-06-18T03:12:44.501Z,1019.41
2017-06-18T03:13:25.039Z,1019.35
2017-06-18T03:14:05.580Z,1019.37
2017-06-18T03:14:46.124Z,1019.38
2017-06-18T03:15:26.645Z,1019.4
2017-06-18T03:16:07.187Z,1019.34
2017-06-18T03:16:47.774Z,1019.32
2017-06-18T03:17:28.301Z,1019.33
2017-06-18T03:18:08.851Z,1019.31
2017-06-18T03:18:49.394Z,1019.32
2017-06-18T03:19:29.941Z,1019.27
2017-06-18T03:20:10.486Z,1019.3
2017-06-18T03:20:51.028Z,1019.31
2017-06-18T03:21:31.569Z,1019.28
2017-06-18T03:22:12.110Z,1019.29
2017-06-18T03:22:52.646Z,1019.27
2017-06-18T03:23:33.195Z,1019.28
2017-06-18T03:24:13.746Z,1019.34
2017-06-18T03:24:54.286Z,1019.3
2017-06-18T03:25:34.826Z,1019.33
2017-06-18T03:26:15.366Z,1019.29
2017-06-18T03:26:55.916Z,1019.33
2017-06-18T03:27:36.461Z,1019.35
2017-06-18T03:28:16.990Z,1019.35
2017-06-18T03:28:57.529Z,1019.34
2017-06-18T03:29:38.073Z,1019.37
2017-06-18T03:30:18.603Z,1019.35
2017-06-18T03:30:59.139Z,1019.36
2017-06-18T03:31:39.671Z,1019.32
2017-06-18T03:32:20.216Z,1019.28
2017-06-18T03:33:00.785Z,1019.3
2017-06-18T03:33:41.320Z,1019.32
2017-06-18T03:34:21.871Z,1019.3
2017-06-18T03:35:02.421Z,1019.31
2017-06-18T03:35:42.955Z,1019.33
2017-06-18T03:36:23.507Z,1019.29
2017-06-18T03:37:04.051Z,1019.32
2017-06-18T03:37:44.597Z,1019.28
2017-06-18T03:38:25.140Z,1019.34
2017-06-18T03:39:05.691Z,1019.36
2017-06-18T03:39:46.228Z,1019.37
2017-06-18T03:40:26.758Z,1019.36
2017-06-18T03:41:07.299Z,1019.33
2017-06-18T03:41:47.844Z,1019.35
2017-06-18T03:42:28.380Z,1019.37
2017-06-18T03:43:08.927Z,1019.36
2017-06-18T03:43:49.464Z,1019.44
2017-06-18T03:44:30.007Z,1019.41
2017-06-18T03:45:10.547Z,1019.38
2017-06-18T03:45:51.079Z,1019.39
2017-06-18T03:46:31.618Z,1019.35
2017-06-18T03:47:12.149Z,1019.34
2017-06-18T03:47:52.685Z,1019.43
2017-06-18T03:48:33.233Z,1019.4
2017-06-18T03:49:13.779Z,1019.42
2017-06-18T03:49:54.326Z,1019.39
2017-06-18T03:50:34.889Z,1019.37
2017-06-18T03:51:15.440Z,1019.41
2017-06-18T03:51:55.991Z,1019.42
2017-06-18T03:52:36.546Z,1019.39
2017-06-18T03:53:17.090Z,1019.4
2017-06-18T03:53:57.643Z,1019.42
2017-06-18T03:54:38.190Z,1019.36
2017-06-18T03:55:18.727Z,1019.39
2017-06-18T03:55:59.269Z,1019.37
2017-06-18T03:56:39.806Z,1019.33
2017-06-18T03:57:20.352Z,1019.41
2017-06-18T03:58:00.885Z,1019.39
2017-06-18T03:58:41.429Z,1019.39
2017-06-18T03:59:21.968Z,1019.37
2017-06-18T04:00:02.505Z,1019.36
2017-06-18T04:00:43.045Z,1019.4
2017-06-18T04:01:23.593Z,1019.38
2017-06-18T04:02:04.130Z,1019.39
2017-06-18T04:02:44.689Z,1019.37
2017-06-18T04:03:25.236Z,1019.39
2017-06-18T04:04:05.787Z,1019.39
2017-06-18T04:04:46.334Z,1019.39
2017-06-18T04:05:26.882Z,1019.37
2017-06-18T04:06:07.429Z,1019.39
2017-06-18T04:06:48.009Z,1019.35
2017-06-18T04:07:28.557Z,1019.36
2017-06-18T04:08:09.103Z,1019.39
2017-06-18T04:08:49.653Z,1019.35
2017-06-18T04:09:30.206Z,1019.32
2017-06-18T04:10:10.759Z,1019.33
2017-06-18T04:10:51.299Z,1019.37
2017-06-18T04:11:31.850Z,1019.38
2017-06-18T04:12:12.398Z,1019.36
2017-06-18T04:12:52.951Z,1019.43
2017-06-18T04:13:33.513Z,1019.38
2017-06-18T04:14:14.060Z,1019.37
2017-06-18T04:14:54.604Z,1019.41
2017-06-18T04:15:35.144Z,1019.38
2017-06-18T04:16:15.692Z,1019.35
2017-06-18T04:16:56.240Z,1019.38
2017-06-18T04:17:36.789Z,1019.38
2017-06-18T04:18:17.332Z,1019.4
2017-06-18T04:18:57.870Z,1019.41
2017-06-18T04:19:38.408Z,1019.38
2017-06-18T04:20:18.939Z,1019.41
2017-06-18T04:20:59.482Z,1019.41
2017-06-18T04:21:40.024Z,1019.42
2017-06-18T04:22:20.573Z,1019.44
2017-06-18T04:23:01.115Z,1019.47
2017-06-18T04:23:41.661Z,1019.43
2017-06-18T04:24:22.199Z,1019.44
2017-06-18T04:25:02.746Z,1019.44
2017-06-18T04:25:43.289Z,1019.47
2017-06-18T04:26:23.842Z,1019.47
2017-06-18T04:27:04.383Z,1019.46
2017-06-18T04:27:44.926Z,1019.45
2017-06-18T04:28:25.464Z,1019.45
2017-06-18T04:29:06.007Z,1019.41
2017-06-18T04:29:46.549Z,1019.46
2017-06-18T04:30:27.087Z,1019.45
2017-06-18T04:31:07.635Z,1019.44
2017-06-18T04:31:48.186Z,1019.43
2017-06-18T04:32:28.733Z,1019.45
2017-06-18T04:33:09.280Z,1019.46
2017-06-18T04:33:49.841Z,1019.49
2017-06-18T04:34:30.392Z,1019.45
2017-06-18T04:35:10.944Z,1019.46
2017-06-18T04:35:51.485Z,1019.45
2017-06-18T04:36:32.028Z,1019.44
2017-06-18T04:37:12.578Z,1019.46
2017-06-18T04:37:53.120Z,1019.44
2017-06-18T04:38:33.674Z,1019.45
2017-06-18T04:39:14.223Z,1019.45
2017-06-18T04:39:54.769Z,1019.44
2017-06-18T04:40:35.319Z,1019.44
2017-06-18T04:41:15.857Z,1019.42
2017-06-18T04:41:56.387Z,1019.43
2017-06-18T04:42:36.935Z,1019.43
2017-06-18T04:43:17.478Z,1019.44
2017-06-18T04:43:58.008Z,1019.4
2017-06-18T04:44:38.549Z,1019.44
2017-06-18T04:45:19.099Z,1019.45
2017-06-18T04:45:59.629Z,1019.47
2017-06-18T04:46:40.188Z,1019.48
2017-06-18T04:47:20.728Z,1019.47
2017-06-18T04:48:01.275Z,1019.48
2017-06-18T04:48:41.825Z,1019.48
2017-06-18T04:49:22.372Z,1019.5
2017-06-18T04:50:02.901Z,1019.49
2017-06-18T04:50:43.443Z,1019.49
2017-06-18T04:51:23.984Z,1019.52
2017-06-18T04:52:04.517Z,1019.53
2017-06-18T04:52:45.057Z,1019.49
2017-06-18T04:53:25.603Z,1019.55
2017-06-18T04:54:06.156Z,1019.53
2017-06-18T04:54:46.725Z,1019.52
2017-06-18T04:55:27.259Z,1019.56
2017-06-18T04:56:07.811Z,1019.55
2017-06-18T04:56:48.384Z,1019.58
2017-06-18T04:57:28.919Z,1019.55
2017-06-18T04:58:09.463Z,1019.55
2017-06-18T04:58:50.016Z,1019.59
2017-06-18T04:59:30.568Z,1019.57
2017-06-18T05:00:11.118Z,1019.56
2017-06-18T05:00:51.664Z,1019.57
2017-06-18T05:01:32.208Z,1019.57
2017-06-18T05:02:12.757Z,1019.54
2017-06-18T05:02:53.300Z,1019.57
2017-06-18T05:03:33.848Z,1019.57
2017-06-18T05:04:14.399Z,1019.52
2017-06-18T05:04:54.962Z,1019.51
2017-06-18T05:05:35.509Z,1019.57
2017-06-18T05:06:16.063Z,1019.58
2017-06-18T05:06:56.600Z,1019.55
2017-06-18T05:07:37.143Z,1019.54
2017-06-18T05:08:17.746Z,1019.55
2017-06-18T05:08:58.212Z,1019.58
2017-06-18T05:09:38.745Z,1019.56
2017-06-18T05:10:19.345Z,1019.56
2017-06-18T05:10:59.891Z,1019.56
2017-06-18T05:11:40.433Z,1019.55
2017-06-18T05:12:20.969Z,1019.55
2017-06-18T05:13:01.502Z,1019.57
2017-06-18T05:13:42.048Z,1019.56
2017-06-18T05:14:22.589Z,1019.57
2017-06-18T05:15:03.135Z,1019.56
2017-06-18T05:15:43.675Z,1019.57
2017-06-18T05:16:24.225Z,1019.52
2017-06-18T05:17:04.770Z,1019.56
2017-06-18T05:17:45.329Z,1019.55
2017-06-18T05:18:25.858Z,1019.57
2017-06-18T05:19:06.404Z,1019.59
2017-06-18T05:19:46.948Z,1019.6
2017-06-18T05:20:27.495Z,1019.57
2017-06-18T05:21:08.041Z,1019.57
2017-06-18T05:21:48.558Z,1019.55
2017-06-18T05:22:29.111Z,1019.57
2017-06-18T05:23:09.662Z,1019.58
2017-06-18T05:23:50.202Z,1019.59
2017-06-18T05:24:30.746Z,1019.59
2017-06-18T05:25:11.299Z,1019.64
2017-06-18T05:25:51.847Z,1019.64
2017-06-18T05:26:32.399Z,1019.62
2017-06-18T05:27:12.964Z,1019.64
2017-06-18T05:27:53.499Z,1019.65
2017-06-18T05:28:34.045Z,1019.65
2017-06-18T05:29:14.586Z,1019.67
2017-06-18T05:29:55.147Z,1019.65
2017-06-18T05:30:35.814Z,1019.61
2017-06-18T05:31:16.355Z,1019.64
2017-06-18T05:31:56.906Z,1019.6
2017-06-18T05:32:37.453Z,1019.54
2017-06-18T05:33:17.992Z,1019.59
2017-06-18T05:33:58.536Z,1019.61
2017-06-18T05:34:39.088Z,1019.56
2017-06-18T05:35:19.634Z,1019.52
2017-06-18T05:36:00.188Z,1019.55
2017-06-18T05:36:40.713Z,1019.53
2017-06-18T05:37:21.241Z,1019.55
2017-06-18T05:38:01.780Z,1019.55
2017-06-18T05:38:42.329Z,1019.53
2017-06-18T05:39:22.857Z,1019.53
2017-06-18T05:40:03.405Z,1019.49
2017-06-18T05:40:43.956Z,1019.52
2017-06-18T05:41:24.507Z,1019.51
2017-06-18T05:42:05.068Z,1019.52
2017-06-18T05:42:45.601Z,1019.56
2017-06-18T05:43:26.159Z,1019.54
2017-06-18T05:44:06.708Z,1019.57
2017-06-18T05:44:47.252Z,1019.57
2017-06-18T05:45:27.795Z,1019.58
2017-06-18T05:46:08.339Z,1019.56
2017-06-18T05:46:48.878Z,1019.64
2017-06-18T05:47:29.421Z,1019.6
2017-06-18T05:48:09.950Z,1019.63
2017-06-18T05:48:50.490Z,1019.6
2017-06-18T05:49:31.033Z,1019.6
2017-06-18T05:50:11.573Z,1019.55
2017-06-18T05:50:52.122Z,1019.59
2017-06-18T05:51:32.668Z,1019.61
2017-06-18T05:52:13.264Z,1019.62
2017-06-18T05:52:54.520Z,1019.63
2017-06-18T05:53:36.067Z,1019.59
2017-06-18T05:54:16.599Z,1019.61
2017-06-18T05:54:57.154Z,1019.57
2017-06-18T05:55:37.704Z,1019.59
2017-06-18T05:56:18.250Z,1019.55
2017-06-18T05:56:58.769Z,1019.59
2017-06-18T05:57:39.292Z,1019.62
2017-06-18T05:58:19.837Z,1019.62
2017-06-18T05:59:00.381Z,1019.65
2017-06-18T05:59:40.928Z,1019.64
2017-06-18T06:00:21.469Z,1019.66
2017-06-18T06:01:02.022Z,1019.63
2017-06-18T06:01:42.569Z,1019.62
2017-06-18T06:02:23.128Z,1019.64
2017-06-18T06:03:03.678Z,1019.66
2017-06-18T06:03:44.228Z,1019.65
2017-06-18T06:04:24.773Z,1019.66
2017-06-18T06:05:05.320Z,1019.64
2017-06-18T06:05:45.884Z,1019.65
2017-06-18T06:06:26.436Z,1019.66
2017-06-18T06:07:06.987Z,1019.66
2017-06-18T06:07:47.539Z,1019.65
2017-06-18T06:08:28.097Z,1019.69
2017-06-18T06:09:08.637Z,1019.65
2017-06-18T06:09:49.195Z,1019.62
2017-06-18T06:10:29.742Z,1019.64
2017-06-18T06:11:10.302Z,1019.67
2017-06-18T06:11:50.846Z,1019.67
2017-06-18T06:12:31.393Z,1019.67
2017-06-18T06:13:11.938Z,1019.64
2017-06-18T06:13:52.473Z,1019.66
2017-06-18T06:14:33.026Z,1019.7
2017-06-18T06:15:13.575Z,1019.64
2017-06-18T06:15:54.115Z,1019.68
2017-06-18T06:16:34.665Z,1019.66
2017-06-18T06:17:15.214Z,1019.71
2017-06-18T06:17:55.737Z,1019.68
2017-06-18T06:18:36.267Z,1019.71
2017-06-18T06:19:16.800Z,1019.72
2017-06-18T06:19:57.353Z,1019.73
2017-06-18T06:20:37.901Z,1019.72
2017-06-18T06:21:18.454Z,1019.74
2017-06-18T06:21:59.002Z,1019.73
2017-06-18T06:22:39.551Z,1019.74
2017-06-18T06:23:20.097Z,1019.7
2017-06-18T06:24:00.643Z,1019.71
2017-06-18T06:24:41.188Z,1019.68
2017-06-18T06:25:21.741Z,1019.73
2017-06-18T06:26:02.288Z,1019.66
2017-06-18T06:26:42.828Z,1019.62
2017-06-18T06:27:23.353Z,1019.67
2017-06-18T06:28:03.905Z,1019.64
2017-06-18T06:28:44.452Z,1019.64
2017-06-18T06:29:24.996Z,1019.64
2017-06-18T06:30:05.536Z,1019.63
2017-06-18T06:30:46.091Z,1019.66
2017-06-18T06:31:26.638Z,1019.64
2017-06-18T06:32:07.173Z,1019.61
2017-06-18T06:32:47.721Z,1019.65
2017-06-18T06:33:28.269Z,1019.64
2017-06-18T06:34:08.804Z,1019.58
2017-06-18T06:34:49.356Z,1019.64
2017-06-18T06:35:29.909Z,1019.61
2017-06-18T06:36:10.466Z,1019.62
2017-06-18T06:36:51.015Z,1019.6
2017-06-18T06:37:31.568Z,1019.6
2017-06-18T06:38:12.157Z,1019.59
2017-06-18T06:38:52.692Z,1019.63
2017-06-18T06:39:33.241Z,1019.63
2017-06-18T06:40:13.794Z,1019.62
2017-06-18T06:40:54.348Z,1019.62
2017-06-18T06:41:34.887Z,1019.64
2017-06-18T06:42:15.432Z,1019.63
2017-06-18T06:42:55.979Z,1019.64
2017-06-18T06:43:36.528Z,1019.62
2017-06-18T06:44:17.225Z,1019.64
2017-06-18T06:44:57.772Z,1019.65
2017-06-18T06:45:38.311Z,1019.66
2017-06-18T06:46:18.853Z,1019.64
2017-06-18T06:46:59.390Z,1019.68
2017-06-18T06:47:39.939Z,1019.65
2017-06-18T06:48:20.510Z,1019.66
2017-06-18T06:49:01.107Z,1019.68
2017-06-18T06:49:41.650Z,1019.71
2017-06-18T06:50:22.189Z,1019.72
2017-06-18T06:51:02.721Z,1019.63
2017-06-18T06:51:43.266Z,1019.68
2017-06-18T06:52:23.811Z,1019.66
2017-06-18T06:53:04.361Z,1019.65
2017-06-18T06:53:44.906Z,1019.66
2017-06-18T06:54:25.449Z,1019.65
2017-06-18T06:55:05.981Z,1019.66
2017-06-18T06:55:46.530Z,1019.65
2017-06-18T06:56:27.081Z,1019.68
2017-06-18T06:57:07.629Z,1019.66
2017-06-18T06:57:48.153Z,1019.67
2017-06-18T06:58:28.692Z,1019.63
2017-06-18T06:59:09.232Z,1019.63
2017-06-18T06:59:49.782Z,1019.62
2017-06-18T07:00:30.329Z,1019.61
2017-06-18T07:01:10.872Z,1019.62
2017-06-18T07:01:51.416Z,1019.59
2017-06-18T07:02:31.982Z,1019.61
2017-06-18T07:03:12.514Z,1019.58
2017-06-18T07:03:53.057Z,1019.58
2017-06-18T07:04:33.612Z,1019.6
2017-06-18T07:05:14.161Z,1019.56
2017-06-18T07:05:54.716Z,1019.59
2017-06-18T07:06:35.265Z,1019.58
2017-06-18T07:07:15.816Z,1019.52
2017-06-18T07:07:56.372Z,1019.52
2017-06-18T07:08:36.921Z,1019.53
2017-06-18T07:09:17.472Z,1019.49
2017-06-18T07:09:58.022Z,1019.55
2017-06-18T07:10:38.566Z,1019.49
2017-06-18T07:11:19.122Z,1019.52
2017-06-18T07:11:59.670Z,1019.51
2017-06-18T07:12:40.238Z,1019.47
2017-06-18T07:13:20.790Z,1019.47
2017-06-18T07:14:01.339Z,1019.51
2017-06-18T07:14:41.888Z,1019.49
2017-06-18T07:15:22.435Z,1019.49
2017-06-18T07:16:02.987Z,1019.49
2017-06-18T07:16:43.529Z,1019.48
2017-06-18T07:17:24.076Z,1019.43
2017-06-18T07:18:04.616Z,1019.42
2017-06-18T07:18:45.167Z,1019.45
2017-06-18T07:19:25.725Z,1019.43
2017-06-18T07:20:06.285Z,1019.42
2017-06-18T07:20:46.835Z,1019.45
2017-06-18T07:21:27.389Z,1019.46
2017-06-18T07:22:07.941Z,1019.44
2017-06-18T07:22:48.524Z,1019.41
2017-06-18T07:23:29.074Z,1019.46
2017-06-18T07:24:09.619Z,1019.44
2017-06-18T07:24:50.146Z,1019.39
2017-06-18T07:25:30.695Z,1019.41
2017-06-18T07:26:11.268Z,1019.43
2017-06-18T07:26:51.774Z,1019.43
2017-06-18T07:27:32.337Z,1019.43
2017-06-18T07:28:12.887Z,1019.45
2017-06-18T07:28:53.441Z,1019.43
2017-06-18T07:29:33.991Z,1019.44
2017-06-18T07:30:14.551Z,1019.46
2017-06-18T07:30:55.104Z,1019.45
2017-06-18T07:31:35.647Z,1019.46
2017-06-18T07:32:16.200Z,1019.45
2017-06-18T07:32:56.752Z,1019.41
2017-06-18T07:33:37.781Z,1019.41
2017-06-18T07:34:18.493Z,1019.39
2017-06-18T07:34:59.170Z,1019.38
2017-06-18T07:35:39.798Z,1019.42
2017-06-18T07:36:20.336Z,1019.4
2017-06-18T07:37:00.976Z,1019.42
2017-06-18T07:37:42.318Z,1019.42
2017-06-18T07:38:23.142Z,1019.39
2017-06-18T07:39:04.139Z,1019.45
2017-06-18T07:39:44.974Z,1019.44
2017-06-18T07:40:25.716Z,1019.44
2017-06-18T07:41:06.575Z,1019.45
2017-06-18T07:41:47.108Z,1019.43
2017-06-18T07:42:27.641Z,1019.46
2017-06-18T07:43:08.190Z,1019.44
2017-06-18T07:43:48.736Z,1019.4
2017-06-18T07:44:29.289Z,1019.39
2017-06-18T07:45:09.878Z,1019.41
2017-06-18T07:45:50.404Z,1019.4
2017-06-18T07:46:30.948Z,1019.44
2017-06-18T07:47:11.507Z,1019.43
2017-06-18T07:47:52.061Z,1019.43
2017-06-18T07:48:32.627Z,1019.42
2017-06-18T07:49:13.161Z,1019.38
2017-06-18T07:49:53.715Z,1019.42
2017-06-18T07:50:34.255Z,1019.47
2017-06-18T07:51:14.817Z,1019.42
2017-06-18T07:51:55.365Z,1019.42
2017-06-18T07:52:35.908Z,1019.47
2017-06-18T07:53:16.466Z,1019.42
2017-06-18T07:53:57.009Z,1019.43
2017-06-18T07:54:37.558Z,1019.46
2017-06-18T07:55:18.089Z,1019.46
2017-06-18T07:55:58.638Z,1019.43
2017-06-18T07:56:39.381Z,1019.47
2017-06-18T07:57:20.565Z,1019.45
2017-06-18T07:58:01.671Z,1019.42
2017-06-18T07:58:42.461Z,1019.41
2017-06-18T07:59:23.016Z,1019.39
2017-06-18T08:00:03.787Z,1019.41
2017-06-18T08:00:44.327Z,1019.39
2017-06-18T08:03:20.767Z,1019.43
2017-06-18T08:04:01.295Z,1019.4
2017-06-18T08:04:42.278Z,1019.41
2017-06-18T08:05:23.356Z,1019.48
2017-06-18T08:06:03.912Z,1019.44
2017-06-18T08:06:44.473Z,1019.39
2017-06-18T08:07:25.024Z,1019.38
2017-06-18T08:08:05.574Z,1019.4
2017-06-18T08:08:46.126Z,1019.43
2017-06-18T08:09:26.658Z,1019.43
2017-06-18T08:10:07.229Z,1019.43
2017-06-18T08:10:47.778Z,1019.39
2017-06-18T08:11:28.329Z,1019.44
2017-06-18T08:12:08.893Z,1019.46
2017-06-18T08:12:49.457Z,1019.46
2017-06-18T08:13:30.023Z,1019.45
2017-06-18T08:14:10.573Z,1019.45
2017-06-18T08:14:51.169Z,1019.38
2017-06-18T08:15:31.955Z,1019.44